Observations for CLEVELAND HOPKINS, OH (CLE)

KCLE 171851Z 34010KT 10SM FEW035 FEW250 27/14 A2999 RMK AO2 SLP148 T02670144
KCLE 171751Z 35012KT 10SM FEW035 FEW250 27/16 A2999 RMK AO2 SLP151 T02670161 10272 20239 53004 $
KCLE 171651Z 01011KT 10SM FEW035 SCT250 27/16 A2999 RMK AO2 SLP148 T02670161 $  
KCLE 171551Z 34009KT 310V010 10SM FEW035 FEW250 27/17 A2999 RMK AO2 SLP148 T02670167 $  
KCLE 171451Z 01011KT 10SM FEW035 26/17 A2998 RMK AO2 SLP147 T02560172 53007 $   
KCLE 171351Z 36011KT 10SM SCT022 24/19 A2997 RMK AO2 SLP142 T02440189 $ 
KCLE 171251Z 35010KT 10SM FEW010 OVC018 24/20 A2996 RMK AO2 SLP140 T02390200
KCLE 171248Z 35011KT 10SM SCT010 OVC016 24/20 A2996 RMK AO2
KCLE 171151Z 32006KT 10SM OVC012 24/22 A2994 RMK AO2 SLP133 70081 T02390217 10239 20222 51013   
KCLE 171136Z 30005KT 10SM SCT012 BKN029 23/21 A2993 RMK AO2 T02330211
KCLE 171145Z 31005KT 10SM BKN012 BKN029 23/21 A2994 RMK AO2
KCLE 171051Z 26003KT 10SM CLR 22/20 A2992 RMK AO2 SLP123 T02220200  
KCLE 170951Z 29005KT 10SM CLR 23/20 A2990 RMK AO2 SLP118 T02280200  
KCLE 170851Z 30004KT 10SM CLR 23/22 A2989 RMK AO2 SLP113 T02330217 56001
KCLE 170751Z 28006KT 9SM CLR 24/22 A2989 RMK AO2 SLP114 T02390222   
KCLE 170651Z 24007KT 9SM FEW035 BKN065 24/22 A2988 RMK AO2 SLP112 T02390222 
KCLE 170551Z 24005KT 10SM FEW032 23/22 A2989 RMK AO2 SLP113 60071 T02330222 10261 20228 58006   
KCLE 170451Z 20006KT 10SM BKN032 24/22 A2990 RMK AO2 SLP116 T02390217 403280228 
KCLE 170351Z 20005KT 10SM FEW060 23/22 A2990 RMK AO2 LTG DSNT SE SLP119 T02330217   
KCLE 170251Z 20003KT 10SM BKN037 24/22 A2991 RMK AO2 RAB0153E04 SLP120 P0000 60071 T02390217 53009  
KCLE 170151Z 16005KT 10SM SCT120 SCT150 23/22 A2988 RMK AO2 LTG DSNT E AND SE RAE15 TSE15 SLP112 P0001 T02330217
KCLE 170121Z 20009KT 10SM SCT120 SCT150 24/22 A2988 RMK AO2 LTG DSNT E AND SE RAE15 TSE15 P0000 T02390217
KCLE 170051Z 18007KT 10SM -TSRA SCT026CB BKN100 BKN110 24/22 A2989 RMK AO2 PK WND 27030/0015 LTG DSNT ALQDS RAB14 SLP113 OCNL LTGICCC OHD TS OHD MOV NE P0070 T02440217 
KCLE 170028Z 17008G26KT 140V220 1SM TSRA BKN020 BKN039CB OVC050 24/20 A2988 RMKAO2 PK WND 27030/0015 LTG DSNT ALQDS RAB14 OCNL LTGICCC OHD TS OHD MOV NE P0058
KCLE 170038Z 18008G15KT 3SM -TSRA BKN029CB BKN055 OVC110 24/21 A2989 RMK AO2 PKWND 27030/0015 LTG DSNT ALQDS RAB14 OCNL LTGICCC OHD TS OHD MOV NE P0069 T023902
KCLE 170018Z 26024G30KT 1/4SM +TSRA FG SCT039CB BKN055 OVC110 24/22 A2989 RMK AO2 PK WND 27030/0015 LTG DSNT ALQDS RAB14 OCNL LTGICCC OHD TS OHD MOV NE P0004 T0
KCLE 162351Z 34006KT 9SM TS SCT050CB SCT070 OVC095 26/24 A2988 RMK AO2 LTG DSNT NE-S RAB06E39 TSB2254 SLP111 OCNL LTGICCC OHD TS OHD MOV NE P0002 60010 T02610239 10328 20261 55002 
KCLE 162300Z 25008KT 10SM TS FEW039 SCT060CB BKN200 30/22 A2987 RMK AO2 LTG DSNT E-SW TSB2254 OCNL LTGICCC OHD TS OHD MOV NE T03000217
KCLE 162251Z 23006KT 10SM FEW039 SCT060 BKN200 29/22 A2987 RMK AO2 LTG DSNT NE-S SLP108 T02940217   
KCLE 162151Z 22008KT 10SM SCT043 BKN050 BKN075 31/22 A2988 RMK AO2 SLP109 T03060217 
KCLE 162051Z 20007KT 10SM FEW085 SCT110 BKN150 31/22 A2989 RMK AO2 SLP113 60008 T03060222 58019 
KCLE 161951Z 15006KT 10SM SCT080 BKN150 30/22 A2990 RMK AO2 WSHFT 1842 RAE13 TSE22 SLP119 P0008 T03000222   
KCLE 161908Z 26004KT 5SM -TSRA FEW036 BKN048CB OVC085 26/23 A2992 RMK AO2 WSHFT1842 P0008 T02610228
KCLE 161923Z 00000KT 10SM FEW030 SCT044 SCT070 BKN150 27/23 A2991 RMK AO2 WSHFT1842 LTG DSNT S RAE13 TSE22 P0008 T02720228
KCLE 161859Z 23009G22KT 1 1/2SM -TSRA FEW036 BKN048CB OVC085 26/22 A2993 RMK AO2 WSHFT 1842 VIS 1/2V5 P0000 T02610217
KCLE 161851Z 24015G20KT 8SM -TSRA SCT036 BKN045CB BKN060 BKN150 27/22 A2993 RMK AO2 RAB50 TSB35 SLP127 OCNL LTGICCCCG SW TS SW MOV NE P0000 T02720217   
KCLE 161841Z 19008KT 10SM TS BKN045CB BKN080 BKN150 30/22 A2993 RMK AO2 TSB35 OCNL LTGICCCCG SW TS SW MOV NE T03000217